createdAt,value
2023-03-07T00:01:25.213Z,70.17
2023-03-07T00:09:53.233Z,70.51
2023-03-07T00:12:25.952Z,70.26
2023-03-07T00:14:58.674Z,70.45
2023-03-07T00:17:32.634Z,70.17
2023-03-07T00:20:07.436Z,70.36
2023-03-07T00:22:40.093Z,70.35
2023-03-07T00:25:12.801Z,69.92
2023-03-07T00:27:45.394Z,69.88
2023-03-07T00:30:18.549Z,69.95
2023-03-07T00:32:52.483Z,69.86
2023-03-07T00:35:25.797Z,69.87
2023-03-07T00:37:59.853Z,69.78
2023-03-07T00:40:32.572Z,70.13
2023-03-07T00:43:05.234Z,69.96
2023-03-07T00:45:37.953Z,69.99
2023-03-07T00:48:12.371Z,70.05
2023-03-07T00:50:45.316Z,69.67
2023-03-07T00:53:18.920Z,70.09
2023-03-07T00:55:55.661Z,70.46
2023-03-07T00:58:28.925Z,69.83
2023-03-07T01:01:02.363Z,69.86
2023-03-07T01:03:36.770Z,69.85
2023-03-07T01:06:10.397Z,69.97
2023-03-07T01:08:46.116Z,70.17
2023-03-07T01:11:20.968Z,70.01
2023-03-07T01:13:55.893Z,69.72
2023-03-07T01:16:30.420Z,70.50
2023-03-07T01:19:08.162Z,70.37
2023-03-07T01:21:41.853Z,70.02
2023-03-07T01:24:16.047Z,69.97
2023-03-07T01:26:49.106Z,70.19
2023-03-07T01:29:21.695Z,69.93
2023-03-07T01:31:55.538Z,70.35
2023-03-07T01:34:29.724Z,69.94
2023-03-07T01:37:03.113Z,69.58
2023-03-07T01:39:35.824Z,69.97
2023-03-07T01:42:14.121Z,69.55
2023-03-07T01:45:00.618Z,69.77
2023-03-07T01:47:43.567Z,69.79
2023-03-07T01:50:18.859Z,69.81
2023-03-07T01:52:54.082Z,69.58
2023-03-07T01:55:28.974Z,69.92
2023-03-07T01:58:09.869Z,70.24
2023-03-07T02:00:43.154Z,70.20
2023-03-07T02:03:19.510Z,69.74
2023-03-07T02:05:55.083Z,69.86
2023-03-07T02:08:29.869Z,69.91
2023-03-07T02:11:02.676Z,70.05
2023-03-07T02:13:36.011Z,69.95
2023-03-07T02:16:08.971Z,70.39
2023-03-07T02:18:43.585Z,69.91
2023-03-07T02:21:23.304Z,70.14
2023-03-07T02:23:59.041Z,70.15
2023-03-07T02:26:39.986Z,69.88
2023-03-07T02:29:13.184Z,70.04
2023-03-07T02:31:47.115Z,70.30
2023-03-07T02:34:21.728Z,69.92
2023-03-07T02:36:59.378Z,69.82
2023-03-07T02:39:32.311Z,70.15
2023-03-07T02:42:10.832Z,69.83
2023-03-07T02:44:57.022Z,70.34
2023-03-07T02:47:30.517Z,70.07
2023-03-07T02:50:05.272Z,70.57
2023-03-07T02:52:39.823Z,70.21
2023-03-07T02:55:12.803Z,70.11
2023-03-07T02:57:53.714Z,70.15
2023-03-07T03:00:26.665Z,70.28
2023-03-07T03:02:59.392Z,69.80
2023-03-07T03:05:32.126Z,69.86
2023-03-07T03:08:05.056Z,70.11
2023-03-07T03:10:37.765Z,70.21
2023-03-07T03:13:11.999Z,70.46
2023-03-07T03:15:47.580Z,69.82
2023-03-07T03:18:20.257Z,69.92
2023-03-07T03:20:52.965Z,70.20
2023-03-07T03:23:28.011Z,70.03
2023-03-07T03:26:01.287Z,70.29
2023-03-07T03:28:38.594Z,69.77
2023-03-07T03:31:15.178Z,69.90
2023-03-07T03:33:49.374Z,69.86
2023-03-07T03:36:25.718Z,70.28
2023-03-07T03:39:00.886Z,69.99
2023-03-07T03:41:35.081Z,70.03
2023-03-07T03:44:11.621Z,69.98
2023-03-07T03:46:44.496Z,70.42
2023-03-07T03:49:17.549Z,70.47
2023-03-07T03:51:53.791Z,69.88
2023-03-07T03:54:26.858Z,70.45
2023-03-07T03:56:59.886Z,70.10
2023-03-07T03:59:34.210Z,69.83
2023-03-07T04:02:06.933Z,70.38
2023-03-07T04:04:39.926Z,69.88
2023-03-07T04:07:12.824Z,70.55
2023-03-07T04:09:45.445Z,70.33
2023-03-07T04:12:18.632Z,70.21
2023-03-07T04:14:52.707Z,70.14
2023-03-07T04:17:25.451Z,70.11
2023-03-07T04:19:58.410Z,70.20
2023-03-07T04:22:31.034Z,70.38
2023-03-07T04:25:04.022Z,70.19
2023-03-07T04:27:36.979Z,69.94
2023-03-07T04:30:12.227Z,70.09
2023-03-07T04:32:45.318Z,70.80
2023-03-07T04:35:18.153Z,70.32
2023-03-07T04:37:51.322Z,70.39
2023-03-07T04:40:24.088Z,70.55
2023-03-07T04:42:57.006Z,70.76
2023-03-07T04:45:31.281Z,70.58
2023-03-07T04:48:04.011Z,70.39
2023-03-07T04:50:37.848Z,70.50
2023-03-07T04:53:10.616Z,70.18
2023-03-07T04:55:43.638Z,70.29
2023-03-07T04:58:17.564Z,70.84
2023-03-07T05:00:51.797Z,70.72
2023-03-07T05:03:25.243Z,70.39
2023-03-07T05:06:02.168Z,70.07
2023-03-07T05:08:35.834Z,70.62
2023-03-07T05:11:08.578Z,70.44
2023-03-07T05:13:41.884Z,70.27
2023-03-07T05:16:17.584Z,70.14
2023-03-07T05:18:50.321Z,70.28
2023-03-07T05:21:23.421Z,70.52
2023-03-07T05:23:56.648Z,70.52
2023-03-07T05:26:29.941Z,70.61
2023-03-07T05:29:02.612Z,70.47
2023-03-07T05:31:37.073Z,70.80
2023-03-07T05:34:11.975Z,70.49
2023-03-07T05:36:45.971Z,70.01
2023-03-07T05:39:19.143Z,70.55
2023-03-07T05:41:51.868Z,70.46
2023-03-07T05:44:25.064Z,70.44
2023-03-07T05:46:59.703Z,70.72
2023-03-07T05:49:32.514Z,71.08
2023-03-07T05:52:05.646Z,70.76
2023-03-07T05:54:38.432Z,70.88
2023-03-07T05:57:11.069Z,71.64
2023-03-07T05:59:45.304Z,71.22
2023-03-07T06:02:19.335Z,70.93
2023-03-07T06:04:52.082Z,70.90
2023-03-07T06:07:25.225Z,71.29
2023-03-07T06:09:58.113Z,71.12
2023-03-07T06:12:30.919Z,70.92
2023-03-07T06:15:04.393Z,71.22
2023-03-07T06:17:40.878Z,70.96
2023-03-07T06:20:16.126Z,71.00
2023-03-07T06:22:49.246Z,71.00
2023-03-07T06:25:22.666Z,70.79
2023-03-07T06:27:59.675Z,70.83
2023-03-07T06:30:32.532Z,70.76
2023-03-07T06:33:06.813Z,70.70
2023-03-07T06:35:40.771Z,70.96
2023-03-07T06:38:14.258Z,71.08
2023-03-07T06:40:47.063Z,70.95
2023-03-07T06:43:19.655Z,71.13
2023-03-07T06:45:52.610Z,70.65
2023-03-07T06:48:27.770Z,70.88
2023-03-07T06:51:00.739Z,71.06
2023-03-07T06:53:33.501Z,71.28
2023-03-07T06:56:08.072Z,71.36
2023-03-07T06:58:41.680Z,71.28
2023-03-07T07:01:18.019Z,71.00
2023-03-07T07:03:53.652Z,71.37
2023-03-07T07:06:26.362Z,70.91
2023-03-07T07:08:59.556Z,71.08
2023-03-07T07:11:36.372Z,70.77
2023-03-07T07:14:10.579Z,70.98
2023-03-07T07:16:44.551Z,71.23
2023-03-07T07:19:18.637Z,71.31
2023-03-07T07:21:52.666Z,70.94
2023-03-07T07:24:25.313Z,71.14
2023-03-07T07:26:59.187Z,70.91
2023-03-07T07:29:32.073Z,71.19
2023-03-07T07:32:05.250Z,71.24
2023-03-07T07:34:39.821Z,70.84
2023-03-07T07:37:13.420Z,70.95
2023-03-07T07:39:46.034Z,71.21
2023-03-07T07:42:18.883Z,70.92
2023-03-07T07:45:06.445Z,71.16
2023-03-07T07:47:39.327Z,70.91
2023-03-07T07:50:14.191Z,71.29
2023-03-07T07:52:47.972Z,70.82
2023-03-07T07:55:20.566Z,71.16
2023-03-07T07:57:53.308Z,71.05
2023-03-07T08:00:26.258Z,71.26
2023-03-07T08:02:59.581Z,70.90
2023-03-07T08:05:33.519Z,71.14
2023-03-07T08:08:06.310Z,71.06
2023-03-07T08:10:43.045Z,71.12
2023-03-07T08:13:16.623Z,71.17
2023-03-07T08:15:49.181Z,71.20
2023-03-07T08:18:22.239Z,71.42
2023-03-07T08:21:00.050Z,71.24
2023-03-07T08:23:32.682Z,71.18
2023-03-07T08:26:06.333Z,71.24
2023-03-07T08:28:39.108Z,71.40
2023-03-07T08:31:13.127Z,71.31
2023-03-07T08:33:47.300Z,71.27
2023-03-07T08:36:21.532Z,70.97
2023-03-07T08:38:54.241Z,71.28
2023-03-07T08:41:26.959Z,71.31
2023-03-07T08:43:59.538Z,71.08
2023-03-07T08:46:32.247Z,71.20
2023-03-07T08:49:05.064Z,71.38
2023-03-07T08:51:41.653Z,71.14
2023-03-07T08:54:14.409Z,71.29
2023-03-07T08:56:46.946Z,71.00
2023-03-07T08:59:19.447Z,71.20
2023-03-07T09:01:52.202Z,70.83
2023-03-07T09:04:25.401Z,70.76
2023-03-07T09:07:01.512Z,70.83
2023-03-07T09:09:34.492Z,70.94
2023-03-07T09:12:07.540Z,70.92
2023-03-07T09:14:40.306Z,70.80
2023-03-07T09:17:14.028Z,70.95
2023-03-07T09:19:47.074Z,70.60
2023-03-07T09:22:21.015Z,70.84
2023-03-07T09:24:53.635Z,70.59
2023-03-07T09:27:26.273Z,70.09
2023-03-07T09:29:58.852Z,70.16
2023-03-07T09:32:32.897Z,70.34
2023-03-07T09:35:05.964Z,70.34
2023-03-07T09:37:39.946Z,70.40
2023-03-07T09:40:17.035Z,70.28
2023-03-07T09:42:55.860Z,70.47
2023-03-07T09:45:43.737Z,70.06
2023-03-07T09:48:43.786Z,70.37
2023-03-07T09:51:18.368Z,70.45
2023-03-07T09:53:54.164Z,70.82
2023-03-07T09:56:30.054Z,71.11
2023-03-07T09:59:13.709Z,70.59
2023-03-07T10:01:56.609Z,70.32
2023-03-07T10:04:35.423Z,70.46
2023-03-07T10:07:10.589Z,70.77
2023-03-07T10:09:45.229Z,69.66
2023-03-07T10:12:27.028Z,71.01
2023-03-07T10:15:06.950Z,70.26
2023-03-07T10:17:49.257Z,70.62
2023-03-07T10:20:25.243Z,70.59
2023-03-07T10:23:02.289Z,70.63
2023-03-07T10:25:41.874Z,70.13
2023-03-07T10:28:20.131Z,70.28
2023-03-07T10:30:55.745Z,70.64
2023-03-07T10:33:30.101Z,70.24
2023-03-07T10:36:07.235Z,70.18
2023-03-07T10:38:45.185Z,70.20
2023-03-07T10:41:21.514Z,70.51
2023-03-07T10:43:54.990Z,69.94
2023-03-07T10:46:30.184Z,70.36
2023-03-07T10:49:10.424Z,70.42
2023-03-07T10:51:52.089Z,70.13
2023-03-07T10:54:30.270Z,70.04
2023-03-07T10:57:08.452Z,70.55
2023-03-07T10:59:43.618Z,70.54
2023-03-07T11:02:31.348Z,70.25
2023-03-07T11:05:05.078Z,70.03
2023-03-07T11:07:37.791Z,70.31
2023-03-07T11:10:25.747Z,70.23
2023-03-07T11:12:59.672Z,70.58
2023-03-07T11:15:32.333Z,70.39
2023-03-07T11:18:06.364Z,70.46
2023-03-07T11:20:48.639Z,70.12
2023-03-07T11:23:23.385Z,70.59
2023-03-07T11:25:57.007Z,70.27
2023-03-07T11:28:33.402Z,70.61
2023-03-07T11:31:13.167Z,70.60
2023-03-07T11:33:59.155Z,70.71
2023-03-07T11:36:33.188Z,70.69
2023-03-07T11:39:12.070Z,70.10
2023-03-07T11:41:47.403Z,70.11
2023-03-07T11:44:26.947Z,69.96
2023-03-07T11:47:08.235Z,70.21
2023-03-07T11:49:45.417Z,70.36
2023-03-07T11:52:31.505Z,70.51
2023-03-07T11:55:12.207Z,70.09
2023-03-07T11:57:52.631Z,69.65
2023-03-07T12:00:32.368Z,70.30
2023-03-07T12:03:17.401Z,70.33
2023-03-07T12:06:02.206Z,70.69
2023-03-07T12:08:41.943Z,70.64
2023-03-07T12:11:30.040Z,70.25
2023-03-07T12:14:09.813Z,70.36
2023-03-07T12:16:49.733Z,70.58
2023-03-07T12:19:32.813Z,70.38
2023-03-07T12:22:26.538Z,70.38
2023-03-07T12:25:24.760Z,70.54
2023-03-07T12:28:03.152Z,70.18
2023-03-07T12:30:38.569Z,70.61
2023-03-07T12:33:18.623Z,70.56
2023-03-07T12:35:54.632Z,69.90
2023-03-07T12:38:30.218Z,69.68
2023-03-07T12:41:05.722Z,70.23
2023-03-07T12:43:42.161Z,69.63
2023-03-07T12:58:23.303Z,69.88
2023-03-07T13:00:59.161Z,70.38
2023-03-07T13:03:38.895Z,69.85
2023-03-07T13:06:14.844Z,70.55
2023-03-07T13:08:48.677Z,70.03
2023-03-07T13:11:22.910Z,70.85
2023-03-07T13:13:58.430Z,70.13
2023-03-07T13:16:36.557Z,70.50
2023-03-07T13:19:28.042Z,70.36
2023-03-07T13:22:00.695Z,69.87
2023-03-07T13:24:34.904Z,70.18
2023-03-07T13:27:15.317Z,69.96
2023-03-07T13:30:06.885Z,70.45
2023-03-07T13:32:58.165Z,69.83
2023-03-07T13:35:46.627Z,69.98
2023-03-07T13:38:31.708Z,70.02
2023-03-07T13:41:11.733Z,69.95
2023-03-07T13:44:01.976Z,70.04
2023-03-07T13:46:51.152Z,69.74
2023-03-07T13:49:47.526Z,70.51
2023-03-07T13:52:30.205Z,70.41
2023-03-07T13:55:04.315Z,70.52
2023-03-07T13:57:41.625Z,69.61
2023-03-07T14:00:24.545Z,69.85
2023-03-07T14:02:57.618Z,70.14
2023-03-07T14:05:32.906Z,69.72
2023-03-07T14:08:11.046Z,70.08
2023-03-07T14:10:45.772Z,69.32
2023-03-07T14:13:39.393Z,69.94
2023-03-07T14:16:20.160Z,70.20
2023-03-07T14:18:58.719Z,70.18
2023-03-07T14:21:39.292Z,70.09
2023-03-07T14:24:24.020Z,70.07
2023-03-07T14:26:57.653Z,70.06
2023-03-07T14:29:31.115Z,69.40
2023-03-07T14:32:03.921Z,69.82
2023-03-07T14:34:37.818Z,69.77
2023-03-07T14:37:13.273Z,69.87
2023-03-07T14:39:53.023Z,69.68
2023-03-07T14:42:29.053Z,69.45
2023-03-07T14:45:08.487Z,69.67
2023-03-07T14:47:53.021Z,69.59
2023-03-07T14:50:27.710Z,69.98
2023-03-07T14:53:03.678Z,69.80
2023-03-07T14:55:39.751Z,70.09
2023-03-07T14:58:17.156Z,69.84
2023-03-07T15:00:58.416Z,70.01
2023-03-07T15:03:39.561Z,70.28
2023-03-07T15:06:14.797Z,70.15
2023-03-07T15:08:49.202Z,70.42
2023-03-07T15:11:30.644Z,70.38
2023-03-07T15:14:04.937Z,69.82
2023-03-07T15:16:38.869Z,70.30
2023-03-07T15:19:15.391Z,70.13
2023-03-07T15:21:49.058Z,69.76
2023-03-07T15:25:04.751Z,70.32
2023-03-07T15:27:38.961Z,70.17
2023-03-07T15:30:19.806Z,70.14
2023-03-07T15:33:04.017Z,70.28
2023-03-07T15:35:36.689Z,69.55
2023-03-07T15:38:14.749Z,70.39
2023-03-07T15:40:47.797Z,69.85
2023-03-07T15:43:28.617Z,69.99
2023-03-07T15:50:01.912Z,69.82
2023-03-07T15:52:36.086Z,69.73
2023-03-07T15:55:17.667Z,69.11
2023-03-07T15:57:51.600Z,69.32
2023-03-07T16:00:28.803Z,69.63
2023-03-07T16:03:19.396Z,69.27
2023-03-07T16:05:52.541Z,70.04
2023-03-07T16:08:25.258Z,69.65
2023-03-07T16:10:59.887Z,69.16
2023-03-07T16:13:33.686Z,69.31
2023-03-07T16:16:15.597Z,70.03
2023-03-07T16:18:48.614Z,69.83
2023-03-07T16:21:21.755Z,69.56
2023-03-07T16:23:54.287Z,69.32
2023-03-07T16:26:27.229Z,69.33
2023-03-07T16:29:00.654Z,69.07
2023-03-07T16:31:34.646Z,68.87
2023-03-07T16:34:07.349Z,69.63
2023-03-07T16:36:40.127Z,69.07
2023-03-07T16:39:13.507Z,69.64
2023-03-07T16:41:48.575Z,69.65
2023-03-07T16:44:22.343Z,69.65
2023-03-07T16:47:00.016Z,69.97
2023-03-07T16:49:32.652Z,69.44
2023-03-07T16:52:06.743Z,69.37
2023-03-07T16:54:39.569Z,69.94
2023-03-07T16:57:13.710Z,69.84
2023-03-07T16:59:47.755Z,69.48
2023-03-07T17:02:22.678Z,69.59
2023-03-07T17:04:55.490Z,69.07
2023-03-07T17:07:28.344Z,69.67
2023-03-07T17:10:01.141Z,69.54
2023-03-07T17:12:34.415Z,69.53
2023-03-07T17:15:07.775Z,69.23
2023-03-07T17:17:41.863Z,68.84
2023-03-07T17:20:14.954Z,69.11
2023-03-07T17:22:47.692Z,69.82
2023-03-07T17:25:20.628Z,69.85
2023-03-07T17:27:55.134Z,69.35
2023-03-07T17:30:28.894Z,69.29
2023-03-07T17:33:02.796Z,69.18
2023-03-07T17:35:35.520Z,69.56
2023-03-07T17:38:08.301Z,69.79
2023-03-07T17:40:41.109Z,69.52
2023-03-07T17:43:14.234Z,69.59
2023-03-07T17:45:46.752Z,69.62
2023-03-07T17:48:24.879Z,68.91
2023-03-07T17:50:57.622Z,69.01
2023-03-07T17:53:30.741Z,69.00
2023-03-07T17:56:07.656Z,69.38
2023-03-07T17:58:40.952Z,69.58
2023-03-07T18:01:19.506Z,69.53
2023-03-07T18:03:56.440Z,70.01
2023-03-07T18:06:38.419Z,70.32
2023-03-07T18:09:13.744Z,70.19
2023-03-07T18:11:47.608Z,70.00
2023-03-07T18:14:23.121Z,70.10
2023-03-07T18:16:55.807Z,70.03
2023-03-07T18:19:30.241Z,70.45
2023-03-07T18:22:02.841Z,70.37
2023-03-07T18:24:35.847Z,70.38
2023-03-07T18:27:10.191Z,70.26
2023-03-07T18:29:42.988Z,70.54
2023-03-07T18:32:15.725Z,70.41
2023-03-07T18:34:52.236Z,70.31
2023-03-07T18:37:24.908Z,70.75
2023-03-07T18:39:57.797Z,70.42
2023-03-07T18:42:30.564Z,70.69
2023-03-07T18:45:03.378Z,70.15
2023-03-07T18:47:36.028Z,70.05
2023-03-07T18:50:12.461Z,70.13
2023-03-07T18:52:45.165Z,70.17
2023-03-07T18:55:18.093Z,70.31
2023-03-07T18:57:50.816Z,70.29
2023-03-07T19:00:24.013Z,70.34
2023-03-07T19:02:56.634Z,69.70
2023-03-07T19:05:30.823Z,69.67
2023-03-07T19:08:03.394Z,69.63
2023-03-07T19:10:37.422Z,70.27
2023-03-07T19:13:10.431Z,70.06
2023-03-07T19:15:44.958Z,70.25
2023-03-07T19:18:17.686Z,70.31
2023-03-07T19:20:52.244Z,69.94
2023-03-07T19:23:24.897Z,70.12
2023-03-07T19:25:57.599Z,70.38
2023-03-07T19:28:30.191Z,70.13
2023-03-07T19:31:07.191Z,70.19
2023-03-07T19:33:39.974Z,70.16
2023-03-07T19:36:14.700Z,70.37
2023-03-07T19:38:48.224Z,70.32
2023-03-07T19:41:21.978Z,70.05
2023-03-07T19:43:56.013Z,70.10
2023-03-07T19:46:28.723Z,70.35
2023-03-07T19:49:01.270Z,70.46
2023-03-07T19:51:35.664Z,70.20
2023-03-07T19:54:09.133Z,70.25
2023-03-07T19:56:42.652Z,70.36
2023-03-07T19:59:15.383Z,70.23
2023-03-07T20:01:48.281Z,70.69
2023-03-07T20:04:21.006Z,70.42
2023-03-07T20:06:55.050Z,70.37
2023-03-07T20:09:27.879Z,70.45
2023-03-07T20:12:00.776Z,70.45
2023-03-07T20:14:33.353Z,70.06
2023-03-07T20:17:06.254Z,70.45
2023-03-07T20:19:39.140Z,70.68
2023-03-07T20:22:13.062Z,70.42
2023-03-07T20:24:45.804Z,70.52
2023-03-07T20:27:21.777Z,70.61
2023-03-07T20:29:54.320Z,70.09
2023-03-07T20:32:26.919Z,69.78
2023-03-07T20:35:03.402Z,70.17
2023-03-07T20:37:37.492Z,70.11
2023-03-07T20:40:10.842Z,70.33
2023-03-07T20:42:43.484Z,70.10
2023-03-07T20:45:16.009Z,70.08
2023-03-07T20:47:48.613Z,70.12
2023-03-07T20:50:21.199Z,69.98
2023-03-07T20:52:55.183Z,70.35
2023-03-07T20:55:29.160Z,70.35
2023-03-07T20:58:01.784Z,69.96
2023-03-07T21:00:34.648Z,70.24
2023-03-07T21:03:09.877Z,70.16
2023-03-07T21:05:42.544Z,70.27
2023-03-07T21:08:16.789Z,70.10
2023-03-07T21:10:58.067Z,70.34
2023-03-07T21:13:30.981Z,70.34
2023-03-07T21:16:04.485Z,69.99
2023-03-07T21:18:37.473Z,70.62
2023-03-07T21:21:11.240Z,70.57
2023-03-07T21:23:45.561Z,70.33
2023-03-07T21:26:19.192Z,70.30
2023-03-07T21:28:52.087Z,70.43
2023-03-07T21:31:25.434Z,70.30
2023-03-07T21:33:58.804Z,70.78
2023-03-07T21:36:32.314Z,70.16
2023-03-07T21:39:08.166Z,70.63
2023-03-07T21:41:40.885Z,70.33
2023-03-07T21:44:14.384Z,70.74
2023-03-07T21:46:46.978Z,70.04
2023-03-07T21:49:19.555Z,70.27
2023-03-07T21:51:52.103Z,70.64
2023-03-07T21:54:26.188Z,70.43
2023-03-07T21:56:58.747Z,70.65
2023-03-07T21:59:33.506Z,70.41
2023-03-07T22:02:06.105Z,70.50
2023-03-07T22:04:38.862Z,70.67
2023-03-07T22:07:11.434Z,70.36
2023-03-07T22:09:45.498Z,70.60
2023-03-07T22:12:18.112Z,70.49
2023-03-07T22:14:52.644Z,70.38
2023-03-07T22:17:25.319Z,70.25
2023-03-07T22:19:58.117Z,70.22
2023-03-07T22:22:30.729Z,70.29
2023-03-07T22:25:05.121Z,70.41
2023-03-07T22:27:38.307Z,70.42
2023-03-07T22:30:11.462Z,70.64
2023-03-07T22:32:44.897Z,70.26
2023-03-07T22:35:17.549Z,70.08
2023-03-07T22:37:50.156Z,70.46
2023-03-07T22:40:24.070Z,70.19
2023-03-07T22:42:56.739Z,70.49
2023-03-07T22:45:29.481Z,70.20
2023-03-07T22:48:02.010Z,70.37
2023-03-07T22:50:34.628Z,70.41
2023-03-07T22:53:07.164Z,70.26
2023-03-07T22:55:42.921Z,70.03
2023-03-07T22:58:15.444Z,70.31
2023-03-07T23:00:48.192Z,70.31
2023-03-07T23:03:20.735Z,70.26
2023-03-07T23:05:54.122Z,70.57
2023-03-07T23:08:26.643Z,70.10
2023-03-07T23:11:02.433Z,70.24
2023-03-07T23:13:35.283Z,70.55
2023-03-07T23:16:09.881Z,70.35
2023-03-07T23:18:43.277Z,70.20
2023-03-07T23:21:17.401Z,70.06
2023-03-07T23:23:50.816Z,70.35
2023-03-07T23:26:26.114Z,70.57
2023-03-07T23:28:58.929Z,70.21
2023-03-07T23:31:32.388Z,69.95
2023-03-07T23:34:06.112Z,70.18
2023-03-07T23:36:38.771Z,70.25
2023-03-07T23:39:11.430Z,70.22
2023-03-07T23:41:46.217Z,69.87
2023-03-07T23:44:20.936Z,70.19
2023-03-07T23:46:53.577Z,70.26
2023-03-07T23:49:26.132Z,70.11
2023-03-07T23:52:00.080Z,69.70
2023-03-07T23:54:32.636Z,70.11
2023-03-07T23:57:06.819Z,70.19
2023-03-07T23:59:39.295Z,70.28
